createdAt,value
2023-05-16T00:00:53.335Z,97159.56
2023-05-16T00:03:21.938Z,97157.75
2023-05-16T00:05:50.723Z,97154.88
2023-05-16T00:08:19.050Z,97151.19
2023-05-16T00:10:47.355Z,97144.88
2023-05-16T00:13:22.282Z,97150.19
2023-05-16T00:15:52.159Z,97145.22
2023-05-16T00:18:22.097Z,97151.19
2023-05-16T00:20:50.704Z,97145.84
2023-05-16T00:23:19.161Z,97144.22
2023-05-16T00:25:47.694Z,97151.38
2023-05-16T00:28:16.062Z,97146.88
2023-05-16T00:30:44.376Z,97151.38
2023-05-16T00:33:14.320Z,97145.22
2023-05-16T00:35:42.644Z,97144.59
2023-05-16T00:38:13.804Z,97146.63
2023-05-16T00:40:42.124Z,97136.94
2023-05-16T00:43:10.683Z,97143.03
2023-05-16T00:45:39.282Z,97142.41
2023-05-16T00:48:09.435Z,97148.91
2023-05-16T00:50:42.391Z,97149.47
2023-05-16T00:53:10.756Z,97154.19
2023-05-16T00:55:39.605Z,97145.72
2023-05-16T00:58:08.462Z,97142.41
2023-05-16T01:00:37.669Z,97144.13
2023-05-16T01:03:07.062Z,97144.31
2023-05-16T01:05:35.825Z,97146.69
2023-05-16T01:08:05.923Z,97147.53
2023-05-16T01:10:42.447Z,97140.91
2023-05-16T01:13:16.876Z,97144.94
2023-05-16T01:15:52.169Z,97142.47
2023-05-16T01:18:32.487Z,97145.31
2023-05-16T01:21:04.100Z,97143.66
2023-05-16T01:23:50.936Z,97130.50
2023-05-16T01:26:25.046Z,97129.31
2023-05-16T01:28:54.125Z,97124.81
2023-05-16T01:31:24.333Z,97121.16
2023-05-16T01:33:52.730Z,97117.28
2023-05-16T01:36:27.314Z,97109.47
2023-05-16T01:39:08.060Z,97115.41
2023-05-16T01:41:56.025Z,97117.28
2023-05-16T01:44:32.203Z,97105.16
2023-05-16T01:47:11.064Z,97106.78
2023-05-16T01:49:50.796Z,97116.44
2023-05-16T01:52:27.966Z,97112.13
2023-05-16T01:55:00.574Z,97115.59
2023-05-16T01:57:31.278Z,97125.47
2023-05-16T02:00:00.031Z,97124.44
2023-05-16T02:02:28.614Z,97112.13
2023-05-16T02:04:56.956Z,97122.78
2023-05-16T02:07:25.540Z,97120.13
2023-05-16T02:09:53.849Z,97126.47
2023-05-16T02:12:22.090Z,97124.81
2023-05-16T02:14:51.742Z,97127.66
2023-05-16T02:17:20.102Z,97131.16
2023-05-16T02:19:48.392Z,97134.66
2023-05-16T02:22:19.434Z,97124.19
2023-05-16T02:24:47.694Z,97130.50
2023-05-16T02:27:16.007Z,97125.34
2023-05-16T02:29:44.347Z,97123.53
2023-05-16T02:32:13.985Z,97122.06
2023-05-16T02:34:43.008Z,97118.09
2023-05-16T02:37:13.206Z,97118.09
2023-05-16T02:39:41.774Z,97115.59
2023-05-16T02:42:12.961Z,97122.59
2023-05-16T02:44:41.195Z,97119.94
2023-05-16T02:47:12.087Z,97122.44
2023-05-16T02:49:41.714Z,97124.06
2023-05-16T02:52:10.059Z,97124.06
2023-05-16T02:54:38.307Z,97120.56
2023-05-16T02:57:06.822Z,97131.22
2023-05-16T02:59:35.105Z,97125.28
2023-05-16T03:02:03.796Z,97130.59
2023-05-16T03:04:32.237Z,97127.94
2023-05-16T03:07:02.026Z,97131.59
2023-05-16T03:09:33.408Z,97140.63
2023-05-16T03:12:01.701Z,97133.63
2023-05-16T03:14:30.004Z,97130.31
2023-05-16T03:16:58.315Z,97136.50
2023-05-16T03:19:29.345Z,97135.66
2023-05-16T03:21:57.680Z,97134.00
2023-05-16T03:24:27.415Z,97136.66
2023-05-16T03:26:56.030Z,97146.31
2023-05-16T03:29:24.276Z,97135.66
2023-05-16T03:31:52.654Z,97139.16
2023-05-16T03:34:20.977Z,97143.47
2023-05-16T03:36:50.622Z,97141.63
2023-05-16T03:39:19.136Z,97138.97
2023-05-16T03:41:48.791Z,97131.78
2023-05-16T03:44:17.108Z,97134.25
2023-05-16T03:46:48.439Z,97142.25
2023-05-16T03:49:16.688Z,97128.94
2023-05-16T03:51:47.887Z,97135.94
2023-05-16T03:54:16.471Z,97131.59
2023-05-16T03:56:44.767Z,97141.09
2023-05-16T03:59:14.751Z,97137.59
2023-05-16T04:01:43.634Z,97141.09
2023-05-16T04:04:11.958Z,97130.59
2023-05-16T04:06:40.534Z,97133.28
2023-05-16T04:09:09.670Z,97137.78
2023-05-16T04:11:40.849Z,97136.13
2023-05-16T04:14:09.199Z,97136.94
2023-05-16T04:16:38.943Z,97143.09
2023-05-16T04:19:07.332Z,97133.28
2023-05-16T04:21:36.415Z,97141.28
2023-05-16T04:24:05.070Z,97131.41
2023-05-16T04:26:33.656Z,97133.72
2023-05-16T04:29:02.005Z,97128.19
2023-05-16T04:31:40.126Z,97129.03
2023-05-16T04:34:11.332Z,97134.19
2023-05-16T04:36:40.334Z,97129.50
2023-05-16T04:39:08.788Z,97130.97
2023-05-16T04:41:37.082Z,97135.94
2023-05-16T04:44:05.396Z,97132.06
2023-05-16T04:46:33.832Z,97143.22
2023-05-16T04:49:03.483Z,97137.69
2023-05-16T04:51:34.947Z,97136.31
2023-05-16T04:54:03.221Z,97125.28
2023-05-16T04:56:32.017Z,97127.78
2023-05-16T04:59:00.491Z,97127.59
2023-05-16T05:01:28.894Z,97136.88
2023-05-16T05:03:59.452Z,97125.22
2023-05-16T05:06:29.163Z,97133.66
2023-05-16T05:08:57.461Z,97137.16
2023-05-16T05:11:26.973Z,97135.94
2023-05-16T05:13:55.267Z,97136.59
2023-05-16T05:16:23.581Z,97129.44
2023-05-16T05:18:52.035Z,97129.06
2023-05-16T05:21:22.084Z,97124.72
2023-05-16T05:23:51.750Z,97136.69
2023-05-16T05:26:21.293Z,97134.66
2023-05-16T05:29:01.024Z,97133.47
2023-05-16T05:31:33.844Z,97134.09
2023-05-16T05:34:02.477Z,97132.88
2023-05-16T05:36:30.974Z,97136.38
2023-05-16T05:39:00.862Z,97123.50
2023-05-16T05:41:29.201Z,97114.28
2023-05-16T05:43:57.473Z,97120.66
2023-05-16T05:46:26.473Z,97120.09
2023-05-16T05:48:57.626Z,97120.91
2023-05-16T05:51:26.147Z,97119.06
2023-05-16T05:53:54.605Z,97121.56
2023-05-16T05:56:24.811Z,97121.00
2023-05-16T05:58:53.428Z,97120.63
2023-05-16T06:01:22.284Z,97123.75
2023-05-16T06:03:51.760Z,97128.53
2023-05-16T06:06:20.292Z,97127.13
2023-05-16T06:08:48.558Z,97131.06
2023-05-16T06:11:16.875Z,97135.03
2023-05-16T06:13:46.617Z,97129.13
2023-05-16T06:16:15.151Z,97125.41
2023-05-16T06:18:43.657Z,97124.00
2023-05-16T06:21:15.321Z,97122.78
2023-05-16T06:23:43.772Z,97120.59
2023-05-16T06:26:12.106Z,97122.41
2023-05-16T06:28:40.530Z,97129.25
2023-05-16T06:31:11.994Z,97123.91
2023-05-16T06:33:40.790Z,97133.38
2023-05-16T06:36:09.612Z,97137.53
2023-05-16T06:38:37.891Z,97147.03
2023-05-16T06:41:06.249Z,97146.84
2023-05-16T06:43:34.582Z,97146.66
2023-05-16T06:46:03.932Z,97144.78
2023-05-16T06:48:33.698Z,97144.78
2023-05-16T06:51:01.994Z,97153.44
2023-05-16T06:53:30.271Z,97153.25
2023-05-16T06:55:58.588Z,97158.41
2023-05-16T06:58:27.696Z,97155.53
2023-05-16T07:00:56.445Z,97158.88
2023-05-16T07:03:25.023Z,97165.47
2023-05-16T07:05:54.846Z,97162.59
2023-05-16T07:08:23.249Z,97169.41
2023-05-16T07:10:51.650Z,97160.38
2023-05-16T07:13:20.015Z,97163.69
2023-05-16T07:15:48.359Z,97157.16
2023-05-16T07:18:16.723Z,97164.38
2023-05-16T07:20:45.952Z,97162.34
2023-05-16T07:23:15.683Z,97157.63
2023-05-16T07:25:44.052Z,97153.28
2023-05-16T07:28:12.356Z,97147.38
2023-05-16T07:30:40.702Z,97152.13
2023-05-16T07:33:09.022Z,97147.31
2023-05-16T07:35:37.443Z,97148.56
2023-05-16T07:38:06.355Z,97160.78
2023-05-16T07:40:36.016Z,97166.38
2023-05-16T07:43:04.371Z,97179.13
2023-05-16T07:45:32.780Z,97173.59
2023-05-16T07:48:01.258Z,97183.72
2023-05-16T07:50:29.736Z,97183.31
2023-05-16T07:52:58.074Z,97181.31
2023-05-16T07:55:26.568Z,97169.41
2023-05-16T07:57:56.650Z,97160.38
2023-05-16T08:00:25.279Z,97172.91
2023-05-16T08:02:54.046Z,97172.50
2023-05-16T08:05:22.920Z,97176.03
2023-05-16T08:07:51.444Z,97179.13
2023-05-16T08:10:19.815Z,97176.88
2023-05-16T08:12:48.420Z,97180.81
2023-05-16T08:15:18.254Z,97181.84
2023-05-16T08:17:46.679Z,97179.63
2023-05-16T08:20:15.205Z,97174.25
2023-05-16T08:22:46.655Z,97174.88
2023-05-16T08:25:15.044Z,97160.50
2023-05-16T08:27:45.476Z,97167.75
2023-05-16T08:30:15.434Z,97165.47
2023-05-16T08:32:45.244Z,97179.91
2023-05-16T08:35:13.904Z,97172.72
2023-05-16T08:37:42.326Z,97164.94
2023-05-16T08:40:12.622Z,97164.34
2023-05-16T08:42:43.307Z,97166.41
2023-05-16T08:45:13.299Z,97174.84
2023-05-16T08:47:45.362Z,97177.34
2023-05-16T08:50:13.957Z,97185.81
2023-05-16T08:52:45.413Z,97188.28
2023-05-16T08:55:16.541Z,97181.91
2023-05-16T08:57:45.729Z,97178.63
2023-05-16T09:00:15.745Z,97173.06
2023-05-16T09:02:46.728Z,97170.81
2023-05-16T09:05:17.170Z,97168.38
2023-05-16T09:07:46.639Z,97166.31
2023-05-16T09:10:15.093Z,97151.31
2023-05-16T09:12:43.968Z,97161.88
2023-05-16T09:15:16.107Z,97153.00
2023-05-16T09:17:49.120Z,97152.22
2023-05-16T09:20:19.566Z,97158.41
2023-05-16T09:22:56.357Z,97157.19
2023-05-16T09:27:59.476Z,97156.16
2023-05-16T09:30:32.303Z,97159.06
2023-05-16T09:33:02.257Z,97148.97
2023-05-16T09:35:44.664Z,97141.56
2023-05-16T09:38:18.856Z,97139.31
2023-05-16T09:40:47.628Z,97130.44
2023-05-16T09:43:18.440Z,97130.41
2023-05-16T09:45:49.629Z,97119.19
2023-05-16T09:48:20.090Z,97120.00
2023-05-16T09:50:52.383Z,97115.44
2023-05-16T09:53:27.553Z,97114.78
2023-05-16T09:56:04.045Z,97115.97
2023-05-16T09:58:33.767Z,97117.59
2023-05-16T10:01:02.834Z,97115.69
2023-05-16T10:03:35.124Z,97110.09
2023-05-16T10:06:05.587Z,97111.91
2023-05-16T10:08:36.731Z,97109.59
2023-05-16T10:11:06.999Z,97116.00
2023-05-16T10:13:37.825Z,97122.19
2023-05-16T10:16:11.812Z,97116.78
2023-05-16T10:18:43.821Z,97122.78
2023-05-16T10:21:17.048Z,97121.97
2023-05-16T10:23:48.927Z,97120.47
2023-05-16T10:26:18.903Z,97119.47
2023-05-16T10:28:47.569Z,97119.25
2023-05-16T10:31:16.968Z,97131.19
2023-05-16T10:33:47.299Z,97128.94
2023-05-16T10:36:16.758Z,97129.53
2023-05-16T10:38:48.069Z,97126.63
2023-05-16T10:41:17.034Z,97128.50
2023-05-16T10:43:57.586Z,97128.72
2023-05-16T10:46:29.189Z,97128.09
2023-05-16T10:48:59.303Z,97120.16
2023-05-16T10:51:38.961Z,97128.44
2023-05-16T10:54:10.416Z,97129.91
2023-05-16T10:56:39.355Z,97130.28
2023-05-16T10:59:26.168Z,97130.88
2023-05-16T11:01:56.467Z,97135.63
2023-05-16T11:04:51.410Z,97125.47
2023-05-16T11:07:21.193Z,97126.69
2023-05-16T11:10:06.978Z,97109.88
2023-05-16T11:12:50.111Z,97108.00
2023-05-16T11:15:28.502Z,97110.25
2023-05-16T11:18:08.912Z,97114.59
2023-05-16T11:20:40.401Z,97112.28
2023-05-16T11:23:23.722Z,97111.47
2023-05-16T11:25:56.917Z,97114.31
2023-05-16T11:28:27.016Z,97112.22
2023-05-16T11:31:00.139Z,97113.06
2023-05-16T11:33:29.949Z,97109.31
2023-05-16T11:36:15.901Z,97119.25
2023-05-16T11:38:45.066Z,97119.88
2023-05-16T11:41:15.618Z,97124.63
2023-05-16T11:43:45.887Z,97123.81
2023-05-16T11:46:15.001Z,97123.81
2023-05-16T11:48:46.610Z,97123.81
2023-05-16T11:51:20.524Z,97121.13
2023-05-16T11:53:50.870Z,97121.13
2023-05-16T11:56:19.657Z,97120.91
2023-05-16T11:58:48.267Z,97115.53
2023-05-16T12:01:18.690Z,97116.34
2023-05-16T12:03:56.004Z,97115.53
2023-05-16T12:06:26.314Z,97117.63
2023-05-16T12:08:54.725Z,97129.13
2023-05-16T12:11:27.661Z,97124.59
2023-05-16T12:13:56.318Z,97129.97
2023-05-16T12:16:25.564Z,97126.22
2023-05-16T12:18:54.259Z,97127.88
2023-05-16T12:21:22.963Z,97121.44
2023-05-16T12:23:57.152Z,97130.59
2023-05-16T12:26:28.386Z,97132.69
2023-05-16T12:29:00.722Z,97141.22
2023-05-16T12:31:32.132Z,97147.09
2023-05-16T12:34:01.195Z,97145.31
2023-05-16T12:36:35.131Z,97153.72
2023-05-16T12:39:05.622Z,97158.94
2023-05-16T12:41:34.118Z,97153.41
2023-05-16T12:44:13.382Z,97154.31
2023-05-16T12:46:46.604Z,97154.97
2023-05-16T12:49:16.140Z,97153.75
2023-05-16T12:51:52.364Z,97160.03
2023-05-16T12:54:23.767Z,97156.97
2023-05-16T12:56:52.387Z,97156.16
2023-05-16T12:59:20.817Z,97166.28
2023-05-16T13:01:49.580Z,97161.31
2023-05-16T13:04:20.252Z,97160.31
2023-05-16T13:06:59.050Z,97167.16
2023-05-16T13:09:32.718Z,97170.88
2023-05-16T13:12:01.858Z,97173.97
2023-05-16T13:14:30.448Z,97166.34
2023-05-16T13:16:58.905Z,97168.00
2023-05-16T13:19:27.509Z,97161.16
2023-05-16T13:21:56.223Z,97163.47
2023-05-16T13:24:24.715Z,97160.38
2023-05-16T13:26:54.576Z,97156.44
2023-05-16T13:29:23.073Z,97156.88
2023-05-16T13:31:51.704Z,97152.31
2023-05-16T13:34:20.136Z,97158.94
2023-05-16T13:36:54.457Z,97151.69
2023-05-16T13:39:23.666Z,97164.88
2023-05-16T13:41:53.869Z,97164.25
2023-05-16T13:44:22.711Z,97169.19
2023-05-16T13:46:51.294Z,97174.56
2023-05-16T13:49:19.735Z,97174.53
2023-05-16T13:51:48.516Z,97180.72
2023-05-16T13:54:17.226Z,97187.31
2023-05-16T13:56:45.834Z,97183.59
2023-05-16T13:59:20.792Z,97188.53
2023-05-16T14:01:56.443Z,97195.09
2023-05-16T14:04:26.392Z,97187.44
2023-05-16T14:06:56.394Z,97193.41
2023-05-16T14:09:24.865Z,97188.41
2023-05-16T14:11:55.870Z,97189.66
2023-05-16T14:14:25.637Z,97196.06
2023-05-16T14:16:54.005Z,97204.09
2023-05-16T14:19:22.413Z,97208.34
2023-05-16T14:21:50.819Z,97227.50
2023-05-16T14:24:19.225Z,97224.59
2023-05-16T14:26:47.571Z,97237.34
2023-05-16T14:29:16.083Z,97233.22
2023-05-16T14:31:45.898Z,97230.09
2023-05-16T14:34:14.369Z,97228.84
2023-05-16T14:36:43.704Z,97231.09
2023-05-16T14:39:12.330Z,97230.88
2023-05-16T14:41:43.335Z,97230.03
2023-05-16T14:44:11.965Z,97225.22
2023-05-16T14:46:40.675Z,97232.63
2023-05-16T14:49:11.124Z,97230.56
2023-05-16T14:51:39.672Z,97230.75
2023-05-16T14:54:08.555Z,97234.66
2023-05-16T14:56:37.001Z,97233.81
2023-05-16T14:59:05.376Z,97237.72
2023-05-16T15:01:33.902Z,97231.72
2023-05-16T15:04:02.380Z,97229.25
2023-05-16T15:06:32.217Z,97230.88
2023-05-16T15:09:00.619Z,97226.19
2023-05-16T15:11:30.852Z,97225.72
2023-05-16T15:13:59.370Z,97219.97
2023-05-16T15:16:27.831Z,97225.69
2023-05-16T15:18:56.326Z,97230.03
2023-05-16T15:21:24.767Z,97234.91
2023-05-16T15:23:55.423Z,97237.38
2023-05-16T15:26:24.715Z,97240.25
2023-05-16T15:28:55.617Z,97246.41
2023-05-16T15:31:24.492Z,97248.47
2023-05-16T15:33:53.027Z,97239.16
2023-05-16T15:36:21.454Z,97238.16
2023-05-16T15:38:49.976Z,97245.53
2023-05-16T15:41:43.299Z,97239.34
2023-05-16T15:44:08.214Z,97245.69
2023-05-16T15:46:36.744Z,97240.53
2023-05-16T15:49:05.266Z,97244.44
2023-05-16T15:51:33.669Z,97238.44
2023-05-16T15:54:02.736Z,97237.59
2023-05-16T15:56:33.089Z,97244.16
2023-05-16T15:59:01.486Z,97247.88
2023-05-16T16:01:30.025Z,97247.88
2023-05-16T16:03:58.583Z,97249.72
2023-05-16T16:06:27.155Z,97244.38
2023-05-16T16:08:55.698Z,97240.03
2023-05-16T16:11:25.121Z,97240.84
2023-05-16T16:13:55.040Z,97239.84
2023-05-16T16:16:23.555Z,97240.84
2023-05-16T16:18:51.967Z,97244.38
2023-05-16T16:21:20.746Z,97241.69
2023-05-16T16:23:49.360Z,97247.88
2023-05-16T16:26:17.993Z,97243.34
2023-05-16T16:28:46.440Z,97251.75
2023-05-16T16:31:16.420Z,97256.28
2023-05-16T16:33:44.979Z,97261.63
2023-05-16T16:36:13.414Z,97260.00
2023-05-16T16:38:41.803Z,97269.84
2023-05-16T16:41:10.601Z,97280.56
2023-05-16T16:43:40.464Z,97285.25
2023-05-16T16:46:09.156Z,97295.34
2023-05-16T16:48:39.155Z,97298.19
2023-05-16T16:51:07.614Z,97302.91
2023-05-16T16:53:37.920Z,97308.63
2023-05-16T16:56:07.347Z,97309.84
2023-05-16T16:58:35.784Z,97316.19
2023-05-16T17:01:04.357Z,97318.88
2023-05-16T17:03:32.895Z,97310.22
2023-05-16T17:06:02.970Z,97316.38
2023-05-16T17:08:31.429Z,97316.75
2023-05-16T17:11:05.038Z,97318.81
2023-05-16T17:13:37.497Z,97315.31
2023-05-16T17:16:07.181Z,97327.03
2023-05-16T17:18:36.890Z,97314.22
2023-05-16T17:21:08.451Z,97331.06
2023-05-16T17:23:36.814Z,97325.91
2023-05-16T17:26:05.407Z,97325.09
2023-05-16T17:28:33.921Z,97326.75
2023-05-16T17:31:02.988Z,97328.78
2023-05-16T17:33:31.353Z,97324.47
2023-05-16T17:35:59.722Z,97324.47
2023-05-16T17:38:29.834Z,97323.63
2023-05-16T17:40:58.186Z,97326.09
2023-05-16T17:43:26.607Z,97332.28
2023-05-16T17:45:54.989Z,97331.81
2023-05-16T17:48:23.714Z,97331.03
2023-05-16T17:50:52.459Z,97337.56
2023-05-16T17:53:21.009Z,97340.41
2023-05-16T17:55:50.863Z,97345.94
2023-05-16T17:58:19.642Z,97339.13
2023-05-16T18:00:48.546Z,97335.38
2023-05-16T18:03:17.566Z,97343.78
2023-05-16T18:05:46.127Z,97343.50
2023-05-16T18:08:14.484Z,97347.56
2023-05-16T18:10:51.523Z,97348.78
2023-05-16T18:13:23.845Z,97359.00
2023-05-16T18:15:52.599Z,97354.22
2023-05-16T18:18:21.074Z,97352.09
2023-05-16T18:20:50.862Z,97356.59
2023-05-16T18:23:19.204Z,97361.66
2023-05-16T18:25:47.961Z,97369.56
2023-05-16T18:28:16.318Z,97373.25
2023-05-16T18:30:46.142Z,97365.13
2023-05-16T18:33:14.619Z,97376.66
2023-05-16T18:35:43.108Z,97380.72
2023-05-16T18:38:20.259Z,97376.72
2023-05-16T18:40:52.816Z,97383.28
2023-05-16T18:43:21.303Z,97384.47
2023-05-16T18:45:51.090Z,97382.72
2023-05-16T18:48:19.568Z,97385.28
2023-05-16T18:50:47.987Z,97382.31
2023-05-16T18:53:16.874Z,97390.31
2023-05-16T18:55:45.242Z,97396.19
2023-05-16T18:58:13.675Z,97402.75
2023-05-16T19:00:42.161Z,97398.13
2023-05-16T19:03:13.436Z,97402.16
2023-05-16T19:05:42.179Z,97398.66
2023-05-16T19:08:10.796Z,97406.66
2023-05-16T19:10:41.757Z,97409.69
2023-05-16T19:13:13.313Z,97414.59
2023-05-16T19:15:41.746Z,97420.56
2023-05-16T19:18:11.679Z,97419.25
2023-05-16T19:20:40.215Z,97418.41
2023-05-16T19:23:08.643Z,97416.47
2023-05-16T19:25:37.080Z,97424.28
2023-05-16T19:28:06.018Z,97432.66
2023-05-16T19:30:34.441Z,97435.03
2023-05-16T19:33:03.365Z,97441.53
2023-05-16T19:35:33.402Z,97439.03
2023-05-16T19:38:01.978Z,97447.91
2023-05-16T19:40:30.928Z,97452.88
2023-05-16T19:42:59.387Z,97456.06
2023-05-16T19:45:29.785Z,97450.91
2023-05-16T19:47:58.469Z,97456.44
2023-05-16T19:50:26.981Z,97464.16
2023-05-16T19:52:56.792Z,97457.50
2023-05-16T19:55:26.994Z,97467.34
2023-05-16T19:57:55.617Z,97465.69
2023-05-16T20:00:24.493Z,97466.75
2023-05-16T20:02:53.214Z,97475.53
2023-05-16T20:05:23.421Z,97467.91
2023-05-16T20:07:53.318Z,97467.44
2023-05-16T20:10:23.187Z,97475.13
2023-05-16T20:12:51.655Z,97478.97
2023-05-16T20:15:20.071Z,97479.66
2023-05-16T20:17:53.569Z,97476.50
2023-05-16T20:20:22.340Z,97484.16
2023-05-16T20:22:50.753Z,97483.81
2023-05-16T20:25:19.204Z,97483.81
2023-05-16T20:27:48.935Z,97481.16
2023-05-16T20:30:17.289Z,97483.34
2023-05-16T20:32:45.866Z,97485.00
2023-05-16T20:35:14.911Z,97482.84
2023-05-16T20:37:43.335Z,97485.34
2023-05-16T20:40:12.427Z,97487.19
2023-05-16T20:42:40.848Z,97487.56
2023-05-16T20:45:12.079Z,97486.72
2023-05-16T20:47:40.474Z,97488.38
2023-05-16T20:50:10.475Z,97487.38
2023-05-16T20:52:41.774Z,97496.19
2023-05-16T20:55:10.716Z,97498.84
2023-05-16T20:57:40.800Z,97498.03
2023-05-16T21:00:13.653Z,97500.03
2023-05-16T21:02:50.522Z,97506.38
2023-05-16T21:05:34.824Z,97514.53
2023-05-16T21:08:03.297Z,97514.72
2023-05-16T21:10:31.725Z,97513.88
2023-05-16T21:13:00.073Z,97513.38
2023-05-16T21:15:30.020Z,97512.06
2023-05-16T21:17:58.688Z,97508.03
2023-05-16T21:20:28.511Z,97506.56
2023-05-16T21:22:56.877Z,97507.91
2023-05-16T21:25:25.394Z,97519.38
2023-05-16T21:27:53.787Z,97513.88
2023-05-16T21:30:22.217Z,97517.38
2023-05-16T21:32:51.941Z,97525.56
2023-05-16T21:35:20.356Z,97531.56
2023-05-16T21:37:48.721Z,97542.03
2023-05-16T21:40:19.204Z,97540.19
2023-05-16T21:42:47.641Z,97542.03
2023-05-16T21:45:16.596Z,97543.69
2023-05-16T21:47:48.074Z,97537.06
2023-05-16T21:50:18.238Z,97540.34
2023-05-16T21:52:46.755Z,97542.22
2023-05-16T21:55:15.121Z,97550.22
2023-05-16T21:57:49.172Z,97554.03
2023-05-16T22:00:19.015Z,97549.88
2023-05-16T22:02:48.572Z,97549.03
2023-05-16T22:05:19.543Z,97557.03
2023-05-16T22:07:49.615Z,97566.69
2023-05-16T22:10:18.615Z,97573.00
2023-05-16T22:12:46.965Z,97570.34
2023-05-16T22:15:15.331Z,97577.53
2023-05-16T22:17:43.758Z,97578.34
2023-05-16T22:20:13.013Z,97580.19
2023-05-16T22:22:44.662Z,97580.19
2023-05-16T22:25:16.278Z,97576.69
2023-05-16T22:27:47.582Z,97584.69
2023-05-16T22:30:16.106Z,97586.84
2023-05-16T22:32:45.670Z,97585.84
2023-05-16T22:35:14.450Z,97594.00
2023-05-16T22:37:44.188Z,97595.00
2023-05-16T22:40:13.222Z,97596.84
2023-05-16T22:42:43.884Z,97594.34
2023-05-16T22:45:12.657Z,97589.19
2023-05-16T22:47:40.997Z,97585.84
2023-05-16T22:50:10.205Z,97593.00
2023-05-16T22:52:41.189Z,97595.19
2023-05-16T22:55:11.718Z,97589.19
2023-05-16T22:57:40.028Z,97596.28
2023-05-16T23:00:10.215Z,97604.28
2023-05-16T23:02:44.421Z,97604.63
2023-05-16T23:05:12.877Z,97608.47
2023-05-16T23:07:41.220Z,97607.63
2023-05-16T23:10:14.589Z,97606.97
2023-05-16T23:12:45.940Z,97612.47
2023-05-16T23:15:14.300Z,97608.16
2023-05-16T23:17:43.865Z,97613.63
2023-05-16T23:20:13.166Z,97604.13
2023-05-16T23:22:49.684Z,97611.47
2023-05-16T23:25:19.436Z,97617.59
2023-05-16T23:27:47.829Z,97620.44
2023-05-16T23:30:16.791Z,97619.63
2023-05-16T23:32:45.188Z,97625.75
2023-05-16T23:35:13.510Z,97618.78
2023-05-16T23:37:45.002Z,97623.25
2023-05-16T23:40:14.097Z,97624.28
2023-05-16T23:42:43.907Z,97619.97
2023-05-16T23:45:13.142Z,97632.25
2023-05-16T23:47:41.488Z,97627.25
2023-05-16T23:50:10.958Z,97632.59
2023-05-16T23:52:39.393Z,97637.22
2023-05-16T23:55:11.386Z,97633.59
2023-05-16T23:57:41.163Z,97641.59
